USPP 252130Z VRB01MPS 9999 SCT010 09/08 Q1005 R21/090060 TEMPO 0500 FG VV001 RMK QFE743
QNH:(hPa/inHg/mmHg)1005 / 29.68 / 754
QFE:(hPa/inHg/mmHg)990 / 29.24 / 743
Temperature9
Dew Point8
Visibility0500
WeatherFog
Cloud CoverSCT (1000);
VV (100);
Transition Height1200 m./4400 ft.
Transition LevelFL60
SQUAWK